createdAt,value
2022-11-02T00:01:44.546Z,9.49
2022-11-02T00:04:13.947Z,9.46
2022-11-02T00:06:45.023Z,9.46
2022-11-02T00:09:17.847Z,9.47
2022-11-02T00:11:57.299Z,9.47
2022-11-02T00:14:28.782Z,9.47
2022-11-02T00:16:58.248Z,9.47
2022-11-02T00:19:27.468Z,9.46
2022-11-02T00:22:00.397Z,9.48
2022-11-02T00:24:32.924Z,9.49
2022-11-02T00:27:02.437Z,9.49
2022-11-02T00:29:33.921Z,9.50
2022-11-02T00:32:03.275Z,9.52
2022-11-02T00:34:32.520Z,9.53
2022-11-02T00:37:01.595Z,9.52
2022-11-02T00:39:40.320Z,9.52
2022-11-02T00:42:09.639Z,9.50
2022-11-02T00:44:39.635Z,9.51
2022-11-02T00:47:12.263Z,9.51
2022-11-02T00:49:41.510Z,9.52
2022-11-02T00:52:10.444Z,9.52
2022-11-02T00:54:40.929Z,9.51
2022-11-02T00:57:11.552Z,9.50
2022-11-02T00:59:40.596Z,9.51
2022-11-02T01:02:09.859Z,9.51
2022-11-02T01:04:39.105Z,9.53
2022-11-02T01:07:08.332Z,9.56
2022-11-02T01:09:37.365Z,9.58
2022-11-02T01:12:07.134Z,9.56
2022-11-02T01:14:36.458Z,9.57
2022-11-02T01:17:05.525Z,9.57
2022-11-02T01:19:34.491Z,9.59
2022-11-02T01:22:03.683Z,9.59
2022-11-02T01:24:37.278Z,9.58
2022-11-02T01:27:23.954Z,9.60
2022-11-02T01:30:01.887Z,9.63
2022-11-02T01:32:31.417Z,9.68
2022-11-02T01:35:00.543Z,9.71
2022-11-02T01:37:29.580Z,9.73
2022-11-02T01:39:58.591Z,9.72
2022-11-02T01:42:29.365Z,9.72
2022-11-02T01:45:06.387Z,9.73
2022-11-02T01:47:41.451Z,9.75
2022-11-02T01:50:21.380Z,9.75
2022-11-02T01:52:50.146Z,9.72
2022-11-02T01:55:26.090Z,9.70
2022-11-02T01:58:08.649Z,9.66
2022-11-02T02:00:39.159Z,9.68
2022-11-02T02:03:12.211Z,9.70
2022-11-02T02:05:44.385Z,9.73
2022-11-02T02:08:18.812Z,9.72
2022-11-02T02:10:47.581Z,9.70
2022-11-02T02:13:18.225Z,9.71
2022-11-02T02:16:11.311Z,9.73
2022-11-02T02:18:54.934Z,9.77
2022-11-02T02:21:42.735Z,9.77
2022-11-02T02:24:37.039Z,9.78
2022-11-02T02:27:28.545Z,9.81
2022-11-02T02:30:12.199Z,9.83
2022-11-02T02:32:50.450Z,9.82
2022-11-02T02:35:45.842Z,9.81
2022-11-02T02:38:55.058Z,9.81
2022-11-02T02:41:26.769Z,9.81
2022-11-02T02:43:59.922Z,9.81
2022-11-02T02:46:40.472Z,9.81
2022-11-02T02:49:16.767Z,9.80
2022-11-02T02:51:47.653Z,9.83
2022-11-02T02:54:23.719Z,9.84
2022-11-02T02:57:11.741Z,9.85
2022-11-02T02:59:46.718Z,9.85
2022-11-02T03:02:26.174Z,9.85
2022-11-02T03:04:55.058Z,9.86
2022-11-02T03:07:35.033Z,9.87
2022-11-02T03:10:27.395Z,9.91
2022-11-02T03:13:12.061Z,9.93
2022-11-02T03:15:54.796Z,9.93
2022-11-02T03:18:28.681Z,9.93
2022-11-02T03:21:11.004Z,9.93
2022-11-02T03:23:47.683Z,9.95
2022-11-02T03:26:30.365Z,9.98
2022-11-02T03:29:26.299Z,10.00
2022-11-02T03:32:03.249Z,10.04
2022-11-02T03:34:48.772Z,10.08
2022-11-02T03:37:50.105Z,10.10
2022-11-02T03:40:25.558Z,10.13
2022-11-02T03:42:55.955Z,10.13
2022-11-02T03:45:37.842Z,10.17
2022-11-02T03:48:09.126Z,10.20
2022-11-02T03:50:43.007Z,10.24
2022-11-02T03:53:24.861Z,10.27
2022-11-02T03:55:59.075Z,10.31
2022-11-02T03:58:27.965Z,10.33
2022-11-02T04:01:04.951Z,10.36
2022-11-02T04:03:35.163Z,10.39
2022-11-02T04:06:04.323Z,10.42
2022-11-02T04:08:42.226Z,10.44
2022-11-02T04:11:49.771Z,10.45
2022-11-02T04:14:37.496Z,10.49
2022-11-02T04:19:59.999Z,10.54
2022-11-02T04:22:47.651Z,10.53
2022-11-02T04:25:19.101Z,10.53
2022-11-02T04:27:52.926Z,10.55
2022-11-02T04:30:23.602Z,10.58
2022-11-02T04:33:10.956Z,10.60
2022-11-02T04:35:39.668Z,10.61
2022-11-02T04:38:27.273Z,10.63
2022-11-02T04:41:16.066Z,10.65
2022-11-02T04:43:44.877Z,10.68
2022-11-02T04:46:13.488Z,10.67
2022-11-02T04:48:42.349Z,10.67
2022-11-02T04:51:11.461Z,10.66
2022-11-02T04:53:40.488Z,10.66
2022-11-02T04:56:09.883Z,10.67
2022-11-02T04:58:39.579Z,10.67
2022-11-02T05:01:16.178Z,10.68
2022-11-02T05:03:55.781Z,10.68
2022-11-02T05:06:32.621Z,10.69
2022-11-02T05:09:01.564Z,10.71
2022-11-02T05:11:30.249Z,10.72
2022-11-02T05:13:59.190Z,10.72
2022-11-02T05:16:30.335Z,10.73
2022-11-02T05:18:59.367Z,10.75
2022-11-02T05:21:29.904Z,10.76
2022-11-02T05:23:59.662Z,10.77
2022-11-02T05:26:30.056Z,10.78
2022-11-02T05:29:00.466Z,10.80
2022-11-02T05:31:48.064Z,10.81
2022-11-02T05:34:19.598Z,10.82
2022-11-02T05:36:49.992Z,10.84
2022-11-02T05:39:19.336Z,10.86
2022-11-02T05:41:53.647Z,10.87
2022-11-02T05:44:31.191Z,10.89
2022-11-02T05:47:03.812Z,10.90
2022-11-02T05:49:34.687Z,10.90
2022-11-02T05:52:04.926Z,10.91
2022-11-02T05:54:41.373Z,10.91
2022-11-02T05:57:10.638Z,10.92
2022-11-02T05:59:42.719Z,10.93
2022-11-02T06:02:25.599Z,10.95
2022-11-02T06:05:03.186Z,10.96
2022-11-02T06:07:38.124Z,10.95
2022-11-02T06:10:08.696Z,10.95
2022-11-02T06:12:58.520Z,10.94
2022-11-02T06:15:35.370Z,10.95
2022-11-02T06:18:05.883Z,10.96
2022-11-02T06:20:35.670Z,10.99
2022-11-02T06:23:10.638Z,11.00
2022-11-02T06:26:04.087Z,11.02
2022-11-02T06:28:39.745Z,11.01
2022-11-02T06:31:18.364Z,11.01
2022-11-02T06:33:57.243Z,11.02
2022-11-02T06:36:39.575Z,11.04
2022-11-02T06:39:09.462Z,11.06
2022-11-02T06:41:43.268Z,11.07
2022-11-02T06:44:14.571Z,11.09
2022-11-02T06:46:46.976Z,11.11
2022-11-02T06:49:18.145Z,11.13
2022-11-02T06:51:47.924Z,11.15
2022-11-02T06:54:26.155Z,11.16
2022-11-02T06:56:55.927Z,11.19
2022-11-02T06:59:31.482Z,11.22
2022-11-02T07:02:01.797Z,11.23
2022-11-02T07:04:45.984Z,11.23
2022-11-02T07:07:24.860Z,11.24
2022-11-02T07:09:59.983Z,11.27
2022-11-02T07:13:00.234Z,11.29
2022-11-02T07:15:33.616Z,11.31
2022-11-02T07:18:38.229Z,11.35
2022-11-02T07:21:15.061Z,11.40
2022-11-02T07:24:00.841Z,11.43
2022-11-02T07:27:03.796Z,11.43
2022-11-02T07:29:42.545Z,11.46
2022-11-02T07:32:53.414Z,11.50
2022-11-02T07:35:45.962Z,11.53
2022-11-02T07:38:31.012Z,11.58
2022-11-02T07:41:20.798Z,11.62
2022-11-02T07:43:59.509Z,11.67
2022-11-02T07:47:00.403Z,11.73
2022-11-02T07:49:48.721Z,11.78
2022-11-02T07:52:28.987Z,11.84
2022-11-02T07:55:12.313Z,11.90
2022-11-02T07:57:44.654Z,11.94
2022-11-02T08:00:20.407Z,11.99
2022-11-02T08:03:30.626Z,12.00
2022-11-02T08:06:13.823Z,12.00
2022-11-02T08:09:05.955Z,12.05
2022-11-02T08:12:44.905Z,12.12
2022-11-02T08:15:36.612Z,12.15
2022-11-02T08:18:18.958Z,12.19
2022-11-02T08:21:03.210Z,12.23
2022-11-02T08:23:40.203Z,12.28
2022-11-02T08:26:15.853Z,12.33
2022-11-02T08:29:21.736Z,12.38
2022-11-02T08:32:54.041Z,12.42
2022-11-02T08:35:38.705Z,12.45
2022-11-02T08:38:19.743Z,12.46
2022-11-02T08:41:27.319Z,12.46
2022-11-02T08:44:10.881Z,12.47
2022-11-02T08:47:04.203Z,12.47
2022-11-02T08:49:47.859Z,12.50
2022-11-02T08:52:28.517Z,12.57
2022-11-02T08:55:19.309Z,12.67
2022-11-02T08:58:05.239Z,12.72
2022-11-02T09:00:50.123Z,12.75
2022-11-02T09:03:27.683Z,12.77
2022-11-02T09:06:10.025Z,12.78
2022-11-02T09:08:47.002Z,12.77
2022-11-02T09:11:26.226Z,12.75
2022-11-02T09:14:12.078Z,12.72
2022-11-02T09:16:51.367Z,12.72
2022-11-02T09:19:35.317Z,12.71
2022-11-02T09:22:16.923Z,12.68
2022-11-02T09:25:05.768Z,12.65
2022-11-02T09:27:40.061Z,12.64
2022-11-02T09:30:22.230Z,12.66
2022-11-02T09:33:17.523Z,12.66
2022-11-02T09:36:08.862Z,12.69
2022-11-02T09:38:55.038Z,12.70
2022-11-02T09:41:49.346Z,12.72
2022-11-02T09:45:09.300Z,12.74
2022-11-02T09:48:17.187Z,12.69
2022-11-02T09:51:24.909Z,12.64
2022-11-02T09:54:13.348Z,12.63
2022-11-02T09:57:02.301Z,12.64
2022-11-02T09:59:44.026Z,12.63
2022-11-02T10:02:35.008Z,12.65
2022-11-02T10:05:16.196Z,12.67
2022-11-02T10:08:49.152Z,12.69
2022-11-02T10:11:25.159Z,12.72
2022-11-02T10:14:40.822Z,12.73
2022-11-02T10:17:34.461Z,12.72
2022-11-02T10:20:55.032Z,12.72
2022-11-02T10:24:14.460Z,12.70
2022-11-02T10:26:50.868Z,12.72
2022-11-02T10:29:40.064Z,12.72
2022-11-02T10:32:21.329Z,12.73
2022-11-02T10:35:51.427Z,12.73
2022-11-02T10:38:33.297Z,12.75
2022-11-02T10:41:31.329Z,12.81
2022-11-02T10:44:36.854Z,12.89
2022-11-02T10:47:55.399Z,12.96
2022-11-02T10:50:56.255Z,12.97
2022-11-02T10:53:50.693Z,13.01
2022-11-02T10:56:40.456Z,13.08
2022-11-02T10:59:32.823Z,13.11
2022-11-02T11:02:53.772Z,13.08
2022-11-02T11:05:33.366Z,13.07
2022-11-02T11:08:05.027Z,13.11
2022-11-02T11:10:44.982Z,13.15
2022-11-02T11:16:24.217Z,13.23
2022-11-02T11:22:45.419Z,13.25
2022-11-02T11:26:00.490Z,13.36
2022-11-02T11:29:23.788Z,13.54
2022-11-02T11:32:29.837Z,13.71
2022-11-02T11:35:40.177Z,13.85
2022-11-02T11:38:24.075Z,13.97
2022-11-02T11:41:12.816Z,14.01
2022-11-02T11:44:00.661Z,14.05
2022-11-02T11:47:02.137Z,13.97
2022-11-02T11:50:10.647Z,14.01
2022-11-02T11:53:27.921Z,14.04
2022-11-02T11:56:34.034Z,14.03
2022-11-02T11:59:41.679Z,14.00
2022-11-02T12:03:07.568Z,13.99
2022-11-02T12:06:38.118Z,14.04
